createdAt,value
2022-12-16T00:01:36.581Z,2.25
2022-12-16T00:04:05.965Z,2.27
2022-12-16T00:06:35.035Z,2.31
2022-12-16T00:09:03.083Z,2.35
2022-12-16T00:11:32.342Z,2.41
2022-12-16T00:14:00.473Z,2.36
2022-12-16T00:16:28.715Z,2.41
2022-12-16T00:18:56.630Z,2.44
2022-12-16T00:21:29.764Z,2.50
2022-12-16T00:23:58.043Z,2.57
2022-12-16T00:26:26.180Z,2.61
2022-12-16T00:28:54.024Z,2.61
2022-12-16T00:31:22.871Z,2.72
2022-12-16T00:33:52.877Z,2.77
2022-12-16T00:36:20.771Z,2.72
2022-12-16T00:38:51.891Z,2.80
2022-12-16T00:41:19.968Z,2.84
2022-12-16T00:43:48.033Z,2.81
2022-12-16T00:46:16.105Z,2.88
2022-12-16T00:48:44.019Z,2.87
2022-12-16T00:51:11.838Z,2.86
2022-12-16T00:53:39.702Z,2.86
2022-12-16T00:56:11.301Z,2.85
2022-12-16T00:58:39.335Z,2.88
2022-12-16T01:01:07.400Z,2.88
2022-12-16T01:03:36.020Z,2.87
2022-12-16T01:06:09.342Z,2.87
2022-12-16T01:08:37.118Z,2.88
2022-12-16T01:11:04.966Z,2.88
2022-12-16T01:13:35.051Z,2.85
2022-12-16T01:16:03.836Z,2.81
2022-12-16T01:18:31.855Z,2.84
2022-12-16T01:21:04.098Z,2.81
2022-12-16T01:23:32.280Z,2.79
2022-12-16T01:26:02.204Z,2.73
2022-12-16T01:28:31.120Z,2.71
2022-12-16T01:31:02.507Z,2.64
2022-12-16T01:33:31.219Z,2.44
2022-12-16T01:36:00.880Z,2.37
2022-12-16T01:38:28.834Z,2.31
2022-12-16T01:40:56.762Z,2.32
2022-12-16T01:43:28.142Z,2.38
2022-12-16T01:46:03.046Z,2.32
2022-12-16T01:48:41.504Z,2.40
2022-12-16T01:51:12.971Z,2.49
2022-12-16T01:53:44.448Z,2.48
2022-12-16T01:56:16.476Z,2.43
2022-12-16T01:58:46.276Z,2.46
2022-12-16T02:01:17.658Z,2.47
2022-12-16T02:03:45.900Z,2.44
2022-12-16T02:06:13.687Z,2.51
2022-12-16T02:08:41.516Z,2.43
2022-12-16T02:11:22.958Z,2.39
2022-12-16T02:14:05.700Z,2.43
2022-12-16T02:16:42.779Z,2.40
2022-12-16T02:19:28.239Z,2.36
2022-12-16T02:22:09.215Z,2.35
2022-12-16T02:25:12.726Z,2.34
2022-12-16T02:27:59.605Z,2.30
2022-12-16T02:31:04.230Z,2.20
2022-12-16T02:34:05.082Z,2.13
2022-12-16T02:36:45.134Z,2.11
2022-12-16T02:39:16.314Z,2.08
2022-12-16T02:41:50.091Z,2.08
2022-12-16T02:44:18.739Z,2.08
2022-12-16T02:46:56.200Z,2.10
2022-12-16T02:49:57.788Z,2.11
2022-12-16T02:52:29.705Z,2.13
2022-12-16T02:55:00.994Z,2.14
2022-12-16T02:58:00.902Z,2.20
2022-12-16T03:00:34.375Z,2.24
2022-12-16T03:03:09.913Z,2.28
2022-12-16T03:05:41.427Z,2.23
2022-12-16T03:08:14.970Z,2.29
2022-12-16T03:10:47.296Z,2.27
2022-12-16T03:13:18.356Z,2.28
2022-12-16T03:15:49.151Z,2.26
2022-12-16T03:18:20.867Z,2.27
2022-12-16T03:20:53.302Z,2.28
2022-12-16T03:23:27.802Z,2.33
2022-12-16T03:26:00.870Z,2.33
2022-12-16T03:28:39.784Z,2.34
2022-12-16T03:31:15.349Z,2.37
2022-12-16T03:33:50.634Z,2.39
2022-12-16T03:36:23.140Z,2.41
2022-12-16T03:38:52.523Z,2.43
2022-12-16T03:41:23.201Z,2.44
2022-12-16T03:43:52.508Z,2.47
2022-12-16T03:46:20.501Z,2.47
2022-12-16T03:48:51.772Z,2.49
2022-12-16T03:51:20.709Z,2.53
2022-12-16T03:53:48.612Z,2.52
2022-12-16T03:56:16.896Z,2.54
2022-12-16T03:58:47.019Z,2.55
2022-12-16T04:01:16.050Z,2.55
2022-12-16T04:03:43.939Z,2.57
2022-12-16T04:06:13.260Z,2.60
2022-12-16T04:08:41.099Z,2.55
2022-12-16T04:11:38.529Z,2.41
2022-12-16T04:14:24.026Z,2.65
2022-12-16T04:17:09.607Z,2.70
2022-12-16T04:19:56.894Z,2.70
2022-12-16T04:22:46.893Z,2.78
2022-12-16T04:25:17.752Z,2.80
2022-12-16T04:27:46.824Z,2.83
2022-12-16T04:30:21.835Z,2.86
2022-12-16T04:33:22.759Z,2.90
2022-12-16T04:36:08.365Z,2.91
2022-12-16T04:38:54.832Z,2.98
2022-12-16T04:41:40.111Z,3.02
2022-12-16T04:44:25.959Z,3.03
2022-12-16T04:47:22.762Z,3.02
2022-12-16T04:50:07.970Z,3.01
2022-12-16T04:52:53.306Z,3.01
2022-12-16T04:55:39.928Z,3.04
2022-12-16T04:58:25.195Z,3.00
2022-12-16T05:01:10.627Z,3.03
2022-12-16T05:03:56.028Z,2.99
2022-12-16T05:06:41.419Z,3.00
2022-12-16T05:09:26.897Z,3.01
2022-12-16T05:12:13.376Z,3.02
2022-12-16T05:14:59.134Z,3.00
2022-12-16T05:17:44.418Z,3.03
2022-12-16T05:20:29.691Z,3.07
2022-12-16T05:23:15.686Z,2.97
2022-12-16T05:26:01.365Z,3.11
2022-12-16T05:28:47.936Z,3.16
2022-12-16T05:31:33.450Z,3.16
2022-12-16T05:34:18.840Z,3.15
2022-12-16T05:37:04.335Z,3.09
2022-12-16T05:39:49.681Z,3.13
2022-12-16T05:42:35.126Z,3.13
2022-12-16T05:45:22.251Z,3.13
2022-12-16T05:48:07.886Z,2.98
2022-12-16T05:50:53.275Z,3.17
2022-12-16T05:53:41.307Z,3.17
2022-12-16T05:56:26.370Z,3.16
2022-12-16T05:59:11.678Z,3.25
2022-12-16T06:01:58.177Z,3.30
2022-12-16T06:04:43.707Z,3.36
2022-12-16T06:07:29.039Z,3.40
2022-12-16T06:10:14.354Z,3.41
2022-12-16T06:12:59.685Z,3.33
2022-12-16T06:15:45.069Z,3.38
2022-12-16T06:18:31.685Z,3.39
2022-12-16T06:21:16.923Z,3.35
2022-12-16T06:24:02.082Z,3.33
2022-12-16T06:26:47.376Z,3.30
2022-12-16T06:29:32.441Z,3.31
2022-12-16T06:32:18.170Z,3.39
2022-12-16T06:35:05.080Z,3.37
2022-12-16T06:37:50.312Z,3.37
2022-12-16T06:40:35.748Z,3.35
2022-12-16T06:43:21.111Z,3.37
2022-12-16T06:46:06.928Z,3.39
2022-12-16T06:48:52.384Z,3.47
2022-12-16T06:51:38.982Z,3.56
2022-12-16T06:54:24.490Z,3.58
2022-12-16T06:57:09.628Z,3.65
2022-12-16T06:59:54.879Z,3.68
2022-12-16T07:02:40.267Z,3.66
2022-12-16T07:05:26.308Z,3.64
2022-12-16T07:08:13.067Z,3.60
2022-12-16T07:11:09.203Z,3.67
2022-12-16T07:14:01.223Z,3.75
2022-12-16T07:16:46.864Z,3.78
2022-12-16T07:19:32.127Z,3.85
2022-12-16T07:22:17.366Z,3.91
2022-12-16T07:25:03.970Z,3.92
2022-12-16T07:27:49.449Z,3.94
2022-12-16T07:30:34.819Z,3.97
2022-12-16T07:33:20.102Z,3.96
2022-12-16T07:36:05.325Z,3.94
2022-12-16T07:38:50.542Z,3.96
2022-12-16T07:41:37.203Z,3.96
2022-12-16T07:44:23.059Z,3.97
2022-12-16T07:47:08.445Z,3.96
2022-12-16T07:50:05.141Z,3.97
2022-12-16T07:52:50.620Z,3.97
2022-12-16T07:55:36.427Z,3.96
2022-12-16T07:58:23.041Z,3.95
2022-12-16T08:01:09.819Z,3.99
2022-12-16T08:03:54.780Z,4.01
2022-12-16T08:06:44.128Z,3.94
2022-12-16T08:09:32.958Z,4.08
2022-12-16T08:12:18.388Z,4.09
2022-12-16T08:15:16.603Z,4.09
2022-12-16T08:18:07.877Z,4.12
2022-12-16T08:21:00.619Z,4.15
2022-12-16T08:23:45.960Z,4.14
2022-12-16T08:26:31.857Z,4.12
2022-12-16T08:29:43.234Z,4.08
2022-12-16T08:32:24.393Z,4.08
2022-12-16T08:35:10.055Z,4.01
2022-12-16T08:37:55.296Z,4.11
2022-12-16T08:40:40.747Z,4.11
2022-12-16T08:43:26.019Z,4.15
2022-12-16T08:46:14.040Z,4.16
2022-12-16T08:49:01.149Z,4.24
2022-12-16T08:51:46.910Z,4.25
2022-12-16T08:54:32.753Z,4.12
2022-12-16T08:57:18.344Z,4.30
2022-12-16T09:00:04.018Z,4.35
2022-12-16T09:03:04.428Z,4.34
2022-12-16T09:05:51.481Z,4.39
2022-12-16T09:08:37.318Z,4.41
2022-12-16T09:11:26.852Z,4.38
2022-12-16T09:14:13.244Z,4.45
2022-12-16T09:16:58.638Z,4.45
2022-12-16T09:19:44.121Z,4.47
2022-12-16T09:22:31.045Z,4.51
2022-12-16T09:25:16.262Z,4.50
2022-12-16T09:28:01.714Z,4.51
2022-12-16T09:30:47.047Z,4.53
2022-12-16T09:33:32.796Z,4.55
2022-12-16T09:36:18.206Z,4.59
2022-12-16T09:39:04.764Z,4.64
2022-12-16T09:42:00.283Z,4.69
2022-12-16T09:45:01.371Z,4.71
2022-12-16T09:47:55.047Z,4.72
2022-12-16T09:50:43.711Z,4.77
2022-12-16T09:53:31.948Z,4.75
2022-12-16T09:56:23.733Z,4.72
2022-12-16T09:59:15.728Z,4.68
2022-12-16T10:02:02.092Z,4.66
2022-12-16T10:04:47.805Z,4.61
2022-12-16T10:07:36.663Z,4.63
2022-12-16T10:10:35.569Z,4.66
2022-12-16T10:13:31.956Z,4.75
2022-12-16T10:16:26.762Z,4.82
2022-12-16T10:19:20.226Z,4.89
2022-12-16T10:22:12.139Z,4.92
2022-12-16T10:25:09.638Z,5.00
2022-12-16T10:28:02.045Z,5.06
2022-12-16T10:30:50.942Z,5.02
2022-12-16T10:33:38.625Z,5.00
2022-12-16T10:36:30.561Z,4.97
2022-12-16T10:39:20.018Z,4.85
2022-12-16T10:42:11.012Z,4.81
2022-12-16T10:45:11.071Z,4.77
2022-12-16T10:47:57.661Z,4.66
2022-12-16T10:50:42.953Z,4.62
2022-12-16T10:53:33.767Z,4.59
2022-12-16T10:56:32.886Z,4.56
2022-12-16T10:59:23.574Z,4.57
2022-12-16T11:02:16.762Z,4.53
2022-12-16T11:05:04.351Z,4.53
2022-12-16T11:07:55.301Z,4.49
2022-12-16T11:10:46.867Z,4.53
2022-12-16T11:13:40.547Z,4.55
2022-12-16T11:16:29.793Z,4.53
2022-12-16T11:19:15.912Z,4.56
2022-12-16T11:22:03.047Z,4.61
2022-12-16T11:24:48.815Z,4.71
2022-12-16T11:27:46.450Z,4.78
2022-12-16T11:30:38.592Z,4.87
2022-12-16T11:33:31.223Z,4.97
2022-12-16T11:36:25.942Z,4.95
2022-12-16T11:39:13.072Z,4.96
2022-12-16T11:42:00.395Z,4.89
2022-12-16T11:44:51.872Z,4.85
2022-12-16T11:47:50.967Z,4.88
2022-12-16T11:50:39.349Z,4.90
2022-12-16T11:53:40.334Z,4.84
2022-12-16T11:56:33.662Z,4.80
2022-12-16T11:59:23.215Z,4.72
2022-12-16T12:02:15.192Z,4.65
2022-12-16T12:05:00.470Z,4.60
2022-12-16T12:07:52.383Z,4.59
2022-12-16T12:11:08.619Z,4.62
2022-12-16T12:14:18.012Z,4.46
2022-12-16T12:17:14.484Z,4.60
2022-12-16T12:20:10.467Z,4.62
2022-12-16T12:22:53.464Z,4.65
2022-12-16T12:25:46.666Z,4.69
2022-12-16T12:28:42.098Z,4.67
2022-12-16T12:31:38.936Z,4.74
2022-12-16T12:34:34.261Z,4.77
2022-12-16T12:37:27.059Z,4.77
2022-12-16T12:40:19.290Z,4.77
2022-12-16T12:43:09.219Z,4.78
2022-12-16T12:46:11.287Z,4.77
2022-12-16T12:49:06.500Z,4.75
2022-12-16T12:52:00.583Z,4.73
2022-12-16T12:54:55.177Z,4.67
2022-12-16T12:57:44.752Z,4.70
2022-12-16T13:00:35.760Z,4.64
2022-12-16T13:03:26.746Z,4.68
2022-12-16T13:06:14.471Z,4.69
2022-12-16T13:09:13.488Z,4.70
2022-12-16T13:12:45.916Z,4.66
2022-12-16T13:15:39.187Z,4.65
2022-12-16T13:18:49.404Z,4.66
2022-12-16T13:22:07.303Z,4.65
2022-12-16T13:25:02.757Z,4.66
2022-12-16T13:28:03.224Z,4.70
2022-12-16T13:30:53.024Z,4.73
2022-12-16T13:33:45.353Z,4.72
2022-12-16T13:36:33.683Z,4.76
2022-12-16T13:39:39.352Z,4.74
2022-12-16T13:42:24.798Z,4.76
2022-12-16T13:45:15.576Z,4.76
2022-12-16T13:48:20.176Z,4.75
2022-12-16T13:51:07.672Z,4.77
2022-12-16T13:53:58.587Z,4.75
2022-12-16T13:56:52.048Z,4.81
2022-12-16T13:59:40.105Z,4.85
2022-12-16T14:02:42.649Z,4.85
2022-12-16T14:05:36.905Z,4.84
2022-12-16T14:08:24.899Z,4.82
2022-12-16T14:11:16.877Z,4.81
2022-12-16T14:14:09.852Z,4.74
2022-12-16T14:17:04.905Z,4.83
2022-12-16T14:19:58.871Z,4.85
2022-12-16T14:23:04.598Z,4.88
2022-12-16T14:25:50.389Z,4.88
2022-12-16T14:28:44.593Z,4.85
2022-12-16T14:31:35.675Z,4.83
2022-12-16T14:34:22.398Z,4.81
2022-12-16T14:37:08.466Z,4.77
2022-12-16T14:39:58.048Z,4.74
2022-12-16T14:42:44.755Z,4.69
2022-12-16T14:45:43.419Z,4.68
2022-12-16T14:48:49.598Z,4.60
2022-12-16T14:51:42.706Z,4.61
2022-12-16T14:54:44.123Z,4.59
2022-12-16T14:57:33.404Z,4.59
2022-12-16T15:00:30.722Z,4.57
2022-12-16T15:03:19.669Z,4.51
2022-12-16T15:06:07.488Z,4.52
2022-12-16T15:08:56.904Z,4.45
2022-12-16T15:11:43.259Z,4.50
2022-12-16T15:14:33.435Z,4.49
2022-12-16T15:17:19.384Z,4.47
2022-12-16T15:20:08.323Z,4.42
2022-12-16T15:22:55.235Z,4.42
2022-12-16T15:25:42.592Z,4.42
2022-12-16T15:28:42.944Z,4.42
2022-12-16T15:31:33.316Z,4.43
2022-12-16T15:34:45.618Z,4.45
2022-12-16T15:37:37.149Z,4.46
2022-12-16T15:40:37.517Z,4.48
2022-12-16T15:43:34.641Z,4.47
2022-12-16T15:46:20.692Z,4.51
2022-12-16T15:49:09.693Z,4.53
2022-12-16T15:52:03.494Z,4.49
2022-12-16T15:54:49.324Z,4.49
2022-12-16T15:57:49.184Z,4.44
2022-12-16T16:00:41.719Z,4.44
2022-12-16T16:03:40.536Z,4.46
2022-12-16T16:06:34.948Z,4.44
2022-12-16T16:09:20.808Z,4.41
2022-12-16T16:12:06.036Z,4.41
2022-12-16T16:14:53.165Z,4.39
2022-12-16T16:17:40.577Z,4.34
2022-12-16T16:20:31.954Z,4.33
2022-12-16T16:23:18.311Z,4.33
2022-12-16T16:26:04.382Z,4.32
2022-12-16T16:28:49.852Z,4.26
2022-12-16T16:31:37.152Z,4.34
2022-12-16T16:34:23.127Z,4.34
2022-12-16T16:37:12.682Z,4.32
2022-12-16T16:39:58.936Z,4.27
2022-12-16T16:42:44.810Z,4.35
2022-12-16T16:45:30.683Z,4.39
2022-12-16T16:48:24.950Z,4.43
2022-12-16T16:51:14.349Z,4.43
2022-12-16T16:54:00.123Z,4.38
2022-12-16T16:56:47.548Z,4.35
2022-12-16T16:59:33.334Z,4.30
2022-12-16T17:02:19.311Z,4.28
2022-12-16T17:05:06.552Z,4.31
2022-12-16T17:07:53.907Z,4.36
2022-12-16T17:10:39.507Z,4.36
2022-12-16T17:13:24.836Z,4.33
2022-12-16T17:16:09.388Z,4.33
2022-12-16T17:18:54.796Z,4.30
2022-12-16T17:21:41.425Z,4.26
2022-12-16T17:24:26.855Z,4.26
2022-12-16T17:27:12.196Z,4.27
2022-12-16T17:29:57.461Z,4.24
2022-12-16T17:32:42.713Z,4.21
2022-12-16T17:35:29.797Z,4.18
2022-12-16T17:38:18.613Z,4.20
2022-12-16T17:41:10.086Z,4.17
2022-12-16T17:43:55.417Z,4.17
2022-12-16T17:46:50.860Z,4.13
2022-12-16T17:49:38.516Z,4.18
2022-12-16T17:52:23.804Z,4.19
2022-12-16T17:55:10.347Z,4.18
2022-12-16T17:57:55.745Z,4.19
2022-12-16T18:00:40.183Z,4.17
2022-12-16T18:03:25.952Z,4.18
2022-12-16T18:06:14.877Z,4.14
2022-12-16T18:08:56.711Z,4.15
2022-12-16T18:11:43.528Z,4.16
2022-12-16T18:14:28.823Z,4.11
2022-12-16T18:17:14.239Z,4.15
2022-12-16T18:19:59.587Z,4.16
2022-12-16T18:22:44.804Z,4.17
2022-12-16T18:25:30.225Z,4.13
2022-12-16T18:28:16.696Z,4.11
2022-12-16T18:31:02.087Z,4.13
2022-12-16T18:33:48.052Z,4.11
2022-12-16T18:36:33.183Z,4.09
2022-12-16T18:39:18.655Z,4.11
2022-12-16T18:42:05.343Z,4.10
2022-12-16T18:44:57.597Z,4.10
2022-12-16T18:47:46.341Z,4.09
2022-12-16T18:50:37.558Z,4.04
2022-12-16T18:53:24.254Z,4.05
2022-12-16T18:56:18.262Z,4.05
2022-12-16T18:59:03.451Z,4.02
2022-12-16T19:01:50.151Z,4.01
2022-12-16T19:04:35.834Z,4.05
2022-12-16T19:07:21.071Z,4.09
2022-12-16T19:10:06.405Z,4.11
2022-12-16T19:12:52.274Z,4.11
2022-12-16T19:15:41.227Z,4.10
2022-12-16T19:18:30.210Z,4.07
2022-12-16T19:21:15.907Z,4.06
2022-12-16T19:24:01.182Z,4.04
2022-12-16T19:26:45.704Z,4.03
2022-12-16T19:29:31.196Z,4.03
2022-12-16T19:32:16.516Z,3.98
2022-12-16T19:35:03.192Z,3.93
2022-12-16T19:37:48.404Z,3.92
2022-12-16T19:40:34.312Z,3.93
2022-12-16T19:43:19.734Z,3.91
2022-12-16T19:46:11.053Z,3.93
2022-12-16T19:48:56.446Z,3.89
2022-12-16T19:51:43.574Z,3.88
2022-12-16T19:54:28.719Z,3.91
2022-12-16T19:57:17.017Z,3.96
2022-12-16T20:00:02.398Z,3.96
2022-12-16T20:02:57.458Z,3.78
2022-12-16T20:05:43.155Z,3.95
2022-12-16T20:08:31.193Z,3.93
2022-12-16T20:11:16.514Z,3.99
2022-12-16T20:14:01.780Z,3.98
2022-12-16T20:16:47.105Z,4.03
2022-12-16T20:19:32.602Z,4.06
2022-12-16T20:22:17.799Z,4.05
2022-12-16T20:25:04.373Z,4.03
2022-12-16T20:27:49.710Z,4.01
2022-12-16T20:30:35.667Z,4.02
2022-12-16T20:33:21.047Z,4.07
2022-12-16T20:36:14.089Z,4.08
2022-12-16T20:38:59.326Z,4.06
2022-12-16T20:41:45.895Z,4.07
2022-12-16T20:44:31.755Z,4.01
2022-12-16T20:47:17.057Z,4.00
2022-12-16T20:50:03.011Z,3.98
2022-12-16T20:52:51.460Z,4.00
2022-12-16T20:55:37.302Z,4.00
2022-12-16T20:58:24.356Z,4.04
2022-12-16T21:01:10.692Z,4.01
2022-12-16T21:03:57.136Z,3.97
2022-12-16T21:06:42.433Z,3.89
2022-12-16T21:09:28.211Z,3.87
2022-12-16T21:12:13.456Z,3.91
2022-12-16T21:15:00.317Z,3.93
2022-12-16T21:17:45.508Z,3.92
2022-12-16T21:20:31.109Z,4.00
2022-12-16T21:23:18.561Z,4.00
2022-12-16T21:26:03.864Z,4.01
2022-12-16T21:28:49.159Z,4.00
2022-12-16T21:31:35.950Z,3.98
2022-12-16T21:34:21.332Z,4.01
2022-12-16T21:37:08.237Z,4.03
2022-12-16T21:39:54.554Z,4.04
2022-12-16T21:42:44.039Z,4.04
2022-12-16T21:45:44.782Z,4.02
2022-12-16T21:48:31.163Z,3.99
2022-12-16T21:51:31.248Z,3.98
2022-12-16T21:54:16.708Z,3.95
2022-12-16T21:57:02.170Z,3.88
2022-12-16T21:59:47.896Z,3.85
2022-12-16T22:02:32.305Z,3.77
2022-12-16T22:05:19.207Z,3.72
2022-12-16T22:08:04.963Z,3.59
2022-12-16T22:10:50.394Z,3.31
2022-12-16T22:13:36.612Z,3.15
2022-12-16T22:16:22.787Z,3.05
2022-12-16T22:19:08.203Z,3.12
2022-12-16T22:21:54.814Z,3.13
2022-12-16T22:24:41.505Z,3.00
2022-12-16T22:27:26.714Z,2.92
2022-12-16T22:30:11.876Z,2.78
2022-12-16T22:32:57.312Z,2.71
2022-12-16T22:35:42.802Z,2.58
2022-12-16T22:38:29.333Z,2.58
2022-12-16T22:41:15.238Z,2.63
2022-12-16T22:44:00.978Z,2.53
2022-12-16T22:46:46.844Z,2.39
2022-12-16T22:49:32.735Z,2.36
2022-12-16T22:52:18.467Z,2.30
2022-12-16T22:55:05.102Z,2.34
2022-12-16T22:57:50.970Z,2.29
2022-12-16T23:00:39.090Z,2.25
2022-12-16T23:03:24.446Z,2.22
2022-12-16T23:06:09.669Z,2.21
2022-12-16T23:08:55.000Z,2.29
2022-12-16T23:11:50.657Z,2.39
2022-12-16T23:14:42.583Z,2.51
2022-12-16T23:17:28.792Z,2.67
2022-12-16T23:20:14.063Z,2.83
2022-12-16T23:22:59.222Z,2.95
2022-12-16T23:25:45.152Z,3.01
2022-12-16T23:28:31.619Z,3.04
2022-12-16T23:31:17.073Z,3.12
2022-12-16T23:34:02.761Z,3.00
2022-12-16T23:36:47.956Z,2.55
2022-12-16T23:39:33.365Z,2.30
2022-12-16T23:42:18.511Z,2.17
2022-12-16T23:45:05.229Z,2.02
2022-12-16T23:47:50.491Z,1.96
2022-12-16T23:50:36.386Z,1.90
2022-12-16T23:53:22.780Z,1.87
2022-12-16T23:56:07.931Z,1.84
2022-12-16T23:59:01.487Z,1.77
